sensor_id;sensor_type;location;lat;lon;timestamp;temperature;humidity
38788;DHT22;24536;45.488;12.238;2023-02-12T00:01:43;7.30;65.70
38788;DHT22;24536;45.488;12.238;2023-02-12T00:04:08;7.20;65.70
38788;DHT22;24536;45.488;12.238;2023-02-12T00:06:34;7.20;65.80
38788;DHT22;24536;45.488;12.238;2023-02-12T00:09:00;7.20;66.10
38788;DHT22;24536;45.488;12.238;2023-02-12T00:11:27;7.20;66.60
38788;DHT22;24536;45.488;12.238;2023-02-12T00:13:54;7.10;66.10
38788;DHT22;24536;45.488;12.238;2023-02-12T00:16:24;7.20;65.90
38788;DHT22;24536;45.488;12.238;2023-02-12T00:18:52;7.20;65.90
38788;DHT22;24536;45.488;12.238;2023-02-12T00:21:18;7.10;66.00
38788;DHT22;24536;45.488;12.238;2023-02-12T00:23:44;7.10;66.40
38788;DHT22;24536;45.488;12.238;2023-02-12T00:26:12;7.90;66.90
38788;DHT22;24536;45.488;12.238;2023-02-12T00:28:38;7.10;66.40
38788;DHT22;24536;45.488;12.238;2023-02-12T00:31:28;7.20;66.40
38788;DHT22;24536;45.488;12.238;2023-02-12T00:33:54;7.20;66.30
38788;DHT22;24536;45.488;12.238;2023-02-12T00:36:22;7.20;66.30
38788;DHT22;24536;45.488;12.238;2023-02-12T00:38:50;7.20;66.30
38788;DHT22;24536;45.488;12.238;2023-02-12T00:41:16;7.10;66.30
38788;DHT22;24536;45.488;12.238;2023-02-12T00:43:42;7.20;66.30
38788;DHT22;24536;45.488;12.238;2023-02-12T00:46:08;7.10;66.20
38788;DHT22;24536;45.488;12.238;2023-02-12T00:48:34;7.20;67.20
38788;DHT22;24536;45.488;12.238;2023-02-12T00:51:01;7.10;66.40
38788;DHT22;24536;45.488;12.238;2023-02-12T00:53:27;7.10;66.80
38788;DHT22;24536;45.488;12.238;2023-02-12T00:58:19;7.10;66.10
38788;DHT22;24536;45.488;12.238;2023-02-12T01:00:45;7.10;66.10
38788;DHT22;24536;45.488;12.238;2023-02-12T01:03:11;7.00;66.30
38788;DHT22;24536;45.488;12.238;2023-02-12T01:05:36;7.00;66.10
38788;DHT22;24536;45.488;12.238;2023-02-12T01:08:03;7.00;66.10
38788;DHT22;24536;45.488;12.238;2023-02-12T01:10:29;7.00;66.30
38788;DHT22;24536;45.488;12.238;2023-02-12T01:12:56;7.00;66.40
38788;DHT22;24536;45.488;12.238;2023-02-12T01:15:22;7.00;66.60
38788;DHT22;24536;45.488;12.238;2023-02-12T01:17:51;7.00;66.50
38788;DHT22;24536;45.488;12.238;2023-02-12T01:20:19;6.90;66.40
38788;DHT22;24536;45.488;12.238;2023-02-12T01:25:12;6.80;66.40
38788;DHT22;24536;45.488;12.238;2023-02-12T01:27:38;6.80;66.50
38788;DHT22;24536;45.488;12.238;2023-02-12T01:30:05;6.80;66.40
38788;DHT22;24536;45.488;12.238;2023-02-12T01:32:31;6.80;66.40
38788;DHT22;24536;45.488;12.238;2023-02-12T01:34:58;6.80;66.50
38788;DHT22;24536;45.488;12.238;2023-02-12T01:37:24;6.80;66.70
38788;DHT22;24536;45.488;12.238;2023-02-12T01:39:49;6.80;66.60
38788;DHT22;24536;45.488;12.238;2023-02-12T01:42:16;6.80;66.50
38788;DHT22;24536;45.488;12.238;2023-02-12T01:47:37;6.70;67.10
38788;DHT22;24536;45.488;12.238;2023-02-12T01:50:06;6.70;66.80
38788;DHT22;24536;45.488;12.238;2023-02-12T01:52:35;6.70;66.90
38788;DHT22;24536;45.488;12.238;2023-02-12T01:55:04;6.70;66.90
38788;DHT22;24536;45.488;12.238;2023-02-12T01:57:36;6.70;66.80
38788;DHT22;24536;45.488;12.238;2023-02-12T02:00:07;6.70;66.60
38788;DHT22;24536;45.488;12.238;2023-02-12T02:02:33;6.60;66.60
38788;DHT22;24536;45.488;12.238;2023-02-12T02:05:01;6.60;66.80
38788;DHT22;24536;45.488;12.238;2023-02-12T02:09:54;6.60;67.00
38788;DHT22;24536;45.488;12.238;2023-02-12T02:12:20;6.50;66.90
38788;DHT22;24536;45.488;12.238;2023-02-12T02:15:05;6.60;66.80
38788;DHT22;24536;45.488;12.238;2023-02-12T02:31:31;6.70;65.90
38788;DHT22;24536;45.488;12.238;2023-02-12T02:34:16;6.60;65.90
38788;DHT22;24536;45.488;12.238;2023-02-12T02:37:17;6.60;66.00
38788;DHT22;24536;45.488;12.238;2023-02-12T02:40:18;6.60;66.00
38788;DHT22;24536;45.488;12.238;2023-02-12T02:42:47;6.60;66.10
38788;DHT22;24536;45.488;12.238;2023-02-12T02:45:27;6.60;66.60
38788;DHT22;24536;45.488;12.238;2023-02-12T02:50:41;6.50;66.60
38788;DHT22;24536;45.488;12.238;2023-02-12T02:53:14;6.40;66.40
38788;DHT22;24536;45.488;12.238;2023-02-12T02:55:49;6.50;65.70
38788;DHT22;24536;45.488;12.238;2023-02-12T02:58:22;6.60;66.00
38788;DHT22;24536;45.488;12.238;2023-02-12T03:00:58;6.50;65.80
38788;DHT22;24536;45.488;12.238;2023-02-12T03:03:37;6.50;66.30
38788;DHT22;24536;45.488;12.238;2023-02-12T03:06:10;6.50;65.70
38788;DHT22;24536;45.488;12.238;2023-02-12T03:08:41;6.50;66.10
38788;DHT22;24536;45.488;12.238;2023-02-12T03:11:32;6.50;65.60
38788;DHT22;24536;45.488;12.238;2023-02-12T03:14:07;6.40;66.00
38788;DHT22;24536;45.488;12.238;2023-02-12T03:16:39;6.40;66.10
38788;DHT22;24536;45.488;12.238;2023-02-12T03:19:11;6.40;66.20
38788;DHT22;24536;45.488;12.238;2023-02-12T03:21:52;6.30;66.40
38788;DHT22;24536;45.488;12.238;2023-02-12T03:26:57;6.30;66.70
38788;DHT22;24536;45.488;12.238;2023-02-12T03:29:24;6.30;66.30
38788;DHT22;24536;45.488;12.238;2023-02-12T03:34:52;6.30;66.60
38788;DHT22;24536;45.488;12.238;2023-02-12T03:40:45;6.10;65.80
38788;DHT22;24536;45.488;12.238;2023-02-12T03:46:35;6.10;66.00
38788;DHT22;24536;45.488;12.238;2023-02-12T03:51:44;6.00;66.20
38788;DHT22;24536;45.488;12.238;2023-02-12T03:54:12;6.00;66.60
38788;DHT22;24536;45.488;12.238;2023-02-12T03:56:52;6.00;66.60
38788;DHT22;24536;45.488;12.238;2023-02-12T03:59:20;5.90;66.40
38788;DHT22;24536;45.488;12.238;2023-02-12T04:01:49;5.90;66.80
38788;DHT22;24536;45.488;12.238;2023-02-12T04:04:16;5.90;66.60
38788;DHT22;24536;45.488;12.238;2023-02-12T04:06:43;5.90;66.60
38788;DHT22;24536;45.488;12.238;2023-02-12T04:28:37;5.80;67.20
38788;DHT22;24536;45.488;12.238;2023-02-12T04:30:36;5.80;67.20
38788;DHT22;24536;45.488;12.238;2023-02-12T04:33:05;5.80;67.00
38788;DHT22;24536;45.488;12.238;2023-02-12T04:35:46;5.80;67.10
38788;DHT22;24536;45.488;12.238;2023-02-12T04:40:46;5.70;66.70
38788;DHT22;24536;45.488;12.238;2023-02-12T04:45:38;5.70;66.90
38788;DHT22;24536;45.488;12.238;2023-02-12T04:48:05;5.70;67.10
38788;DHT22;24536;45.488;12.238;2023-02-12T04:50:40;5.70;67.10
38788;DHT22;24536;45.488;12.238;2023-02-12T04:53:06;5.80;67.20
38788;DHT22;24536;45.488;12.238;2023-02-12T04:55:32;5.70;67.10
38788;DHT22;24536;45.488;12.238;2023-02-12T04:57:58;5.70;67.10
38788;DHT22;24536;45.488;12.238;2023-02-12T05:00:24;5.80;67.50
38788;DHT22;24536;45.488;12.238;2023-02-12T05:02:49;5.80;67.00
38788;DHT22;24536;45.488;12.238;2023-02-12T05:05:15;5.80;67.60
38788;DHT22;24536;45.488;12.238;2023-02-12T05:07:41;5.80;67.40
38788;DHT22;24536;45.488;12.238;2023-02-12T05:10:07;5.80;67.90
38788;DHT22;24536;45.488;12.238;2023-02-12T05:14:59;5.70;67.50
38788;DHT22;24536;45.488;12.238;2023-02-12T05:17:25;5.80;67.60
38788;DHT22;24536;45.488;12.238;2023-02-12T05:19:51;5.80;67.30
38788;DHT22;24536;45.488;12.238;2023-02-12T05:24:42;5.80;66.80
38788;DHT22;24536;45.488;12.238;2023-02-12T05:27:08;5.80;66.10
38788;DHT22;24536;45.488;12.238;2023-02-12T05:29:35;5.80;66.50
38788;DHT22;24536;45.488;12.238;2023-02-12T05:32:00;5.90;65.80
38788;DHT22;24536;45.488;12.238;2023-02-12T05:34:26;5.90;65.60
38788;DHT22;24536;45.488;12.238;2023-02-12T05:36:52;5.80;65.60
38788;DHT22;24536;45.488;12.238;2023-02-12T05:39:18;5.80;65.60
38788;DHT22;24536;45.488;12.238;2023-02-12T05:41:43;5.90;65.90
38788;DHT22;24536;45.488;12.238;2023-02-12T05:44:09;5.90;65.50
38788;DHT22;24536;45.488;12.238;2023-02-12T05:46:40;5.90;65.30
38788;DHT22;24536;45.488;12.238;2023-02-12T05:49:06;5.90;65.20
38788;DHT22;24536;45.488;12.238;2023-02-12T05:51:32;5.90;65.10
38788;DHT22;24536;45.488;12.238;2023-02-12T05:54:01;5.90;65.20
38788;DHT22;24536;45.488;12.238;2023-02-12T05:59:00;5.90;65.10
38788;DHT22;24536;45.488;12.238;2023-02-12T06:01:31;5.90;65.20
38788;DHT22;24536;45.488;12.238;2023-02-12T06:04:01;5.90;65.20
38788;DHT22;24536;45.488;12.238;2023-02-12T06:06:28;5.80;65.00
38788;DHT22;24536;45.488;12.238;2023-02-12T06:08:54;5.70;64.80
38788;DHT22;24536;45.488;12.238;2023-02-12T06:11:20;5.70;65.00
38788;DHT22;24536;45.488;12.238;2023-02-12T06:16:24;5.60;65.40
38788;DHT22;24536;45.488;12.238;2023-02-12T06:18:50;5.50;65.90
38788;DHT22;24536;45.488;12.238;2023-02-12T06:21:17;5.50;66.00
38788;DHT22;24536;45.488;12.238;2023-02-12T06:23:44;5.50;65.90
38788;DHT22;24536;45.488;12.238;2023-02-12T06:26:11;5.50;66.10
38788;DHT22;24536;45.488;12.238;2023-02-12T06:28:37;5.60;66.00
38788;DHT22;24536;45.488;12.238;2023-02-12T06:31:02;5.60;65.60
38788;DHT22;24536;45.488;12.238;2023-02-12T06:33:31;5.70;65.30
38788;DHT22;24536;45.488;12.238;2023-02-12T06:35:57;5.70;65.10
38788;DHT22;24536;45.488;12.238;2023-02-12T06:38:23;5.60;65.00
38788;DHT22;24536;45.488;12.238;2023-02-12T06:40:49;5.70;64.60
38788;DHT22;24536;45.488;12.238;2023-02-12T06:43:14;5.70;64.40
38788;DHT22;24536;45.488;12.238;2023-02-12T06:45:40;5.80;64.40
38788;DHT22;24536;45.488;12.238;2023-02-12T06:48:06;5.80;64.50
38788;DHT22;24536;45.488;12.238;2023-02-12T06:52:58;5.80;64.40
38788;DHT22;24536;45.488;12.238;2023-02-12T06:57:50;5.90;64.00
38788;DHT22;24536;45.488;12.238;2023-02-12T07:00:16;6.00;64.10
38788;DHT22;24536;45.488;12.238;2023-02-12T07:02:42;6.00;64.10
38788;DHT22;24536;45.488;12.238;2023-02-12T07:10:01;6.00;64.40
38788;DHT22;24536;45.488;12.238;2023-02-12T07:27:04;5.80;64.40
38788;DHT22;24536;45.488;12.238;2023-02-12T07:29:30;5.80;64.50
38788;DHT22;24536;45.488;12.238;2023-02-12T07:31:56;5.80;64.60
38788;DHT22;24536;45.488;12.238;2023-02-12T07:34:21;5.90;66.40
38788;DHT22;24536;45.488;12.238;2023-02-12T07:36:47;6.00;65.50
38788;DHT22;24536;45.488;12.238;2023-02-12T07:39:13;6.00;65.30
38788;DHT22;24536;45.488;12.238;2023-02-12T07:41:38;6.10;65.00
38788;DHT22;24536;45.488;12.238;2023-02-12T07:44:07;6.10;64.20
38788;DHT22;24536;45.488;12.238;2023-02-12T07:46:46;6.10;64.20
38788;DHT22;24536;45.488;12.238;2023-02-12T07:49:20;6.20;64.00
38788;DHT22;24536;45.488;12.238;2023-02-12T07:51:47;6.30;64.00
38788;DHT22;24536;45.488;12.238;2023-02-12T07:54:13;6.20;63.90
38788;DHT22;24536;45.488;12.238;2023-02-12T07:56:41;6.30;64.00
38788;DHT22;24536;45.488;12.238;2023-02-12T07:59:10;6.20;64.40
38788;DHT22;24536;45.488;12.238;2023-02-12T08:01:38;6.40;64.00
38788;DHT22;24536;45.488;12.238;2023-02-12T08:04:10;6.50;63.60
38788;DHT22;24536;45.488;12.238;2023-02-12T08:11:35;6.60;63.70
38788;DHT22;24536;45.488;12.238;2023-02-12T08:14:04;6.70;63.60
38788;DHT22;24536;45.488;12.238;2023-02-12T08:16:35;6.70;63.00
38788;DHT22;24536;45.488;12.238;2023-02-12T08:19:05;6.80;63.10
38788;DHT22;24536;45.488;12.238;2023-02-12T08:23:58;6.90;62.60
38788;DHT22;24536;45.488;12.238;2023-02-12T08:26:31;7.00;62.80
38788;DHT22;24536;45.488;12.238;2023-02-12T08:29:00;7.10;62.40
38788;DHT22;24536;45.488;12.238;2023-02-12T08:31:28;7.20;61.70
38788;DHT22;24536;45.488;12.238;2023-02-12T08:33:54;7.30;61.60
38788;DHT22;24536;45.488;12.238;2023-02-12T08:36:23;7.40;61.30
38788;DHT22;24536;45.488;12.238;2023-02-12T08:38:50;7.60;61.70
38788;DHT22;24536;45.488;12.238;2023-02-12T08:41:19;7.70;59.30
38788;DHT22;24536;45.488;12.238;2023-02-12T08:43:44;7.70;60.00
38788;DHT22;24536;45.488;12.238;2023-02-12T08:46:16;7.70;59.30
38788;DHT22;24536;45.488;12.238;2023-02-12T08:48:43;7.70;59.60
38788;DHT22;24536;45.488;12.238;2023-02-12T08:51:12;7.70;58.90
38788;DHT22;24536;45.488;12.238;2023-02-12T08:53:40;7.80;59.20
38788;DHT22;24536;45.488;12.238;2023-02-12T08:56:08;8.00;59.30
38788;DHT22;24536;45.488;12.238;2023-02-12T08:58:35;8.00;60.00
38788;DHT22;24536;45.488;12.238;2023-02-12T09:01:01;6.70;57.70
38788;DHT22;24536;45.488;12.238;2023-02-12T09:03:27;8.40;57.10
38788;DHT22;24536;45.488;12.238;2023-02-12T09:05:53;8.50;56.80
38788;DHT22;24536;45.488;12.238;2023-02-12T09:08:19;8.40;56.80
38788;DHT22;24536;45.488;12.238;2023-02-12T09:10:45;8.80;58.10
38788;DHT22;24536;45.488;12.238;2023-02-12T09:13:12;9.00;58.20
38788;DHT22;24536;45.488;12.238;2023-02-12T09:15:40;9.30;58.00
38788;DHT22;24536;45.488;12.238;2023-02-12T09:18:06;9.50;57.70
38788;DHT22;24536;45.488;12.238;2023-02-12T09:20:32;9.80;57.00
38788;DHT22;24536;45.488;12.238;2023-02-12T09:22:58;9.90;56.20
38788;DHT22;24536;45.488;12.238;2023-02-12T09:25:25;10.10;56.40
38788;DHT22;24536;45.488;12.238;2023-02-12T09:27:51;10.30;55.20
38788;DHT22;24536;45.488;12.238;2023-02-12T09:30:16;10.70;55.30
38788;DHT22;24536;45.488;12.238;2023-02-12T09:32:42;10.70;55.20
38788;DHT22;24536;45.488;12.238;2023-02-12T09:35:08;10.90;55.20
38788;DHT22;24536;45.488;12.238;2023-02-12T09:37:37;11.20;53.90
38788;DHT22;24536;45.488;12.238;2023-02-12T09:40:05;11.30;54.30
38788;DHT22;24536;45.488;12.238;2023-02-12T09:45:41;11.70;52.40
38788;DHT22;24536;45.488;12.238;2023-02-12T09:48:43;11.70;52.50
38788;DHT22;24536;45.488;12.238;2023-02-12T09:51:11;11.90;52.30
38788;DHT22;24536;45.488;12.238;2023-02-12T09:53:40;12.10;51.60
38788;DHT22;24536;45.488;12.238;2023-02-12T09:56:17;12.10;51.60
38788;DHT22;24536;45.488;12.238;2023-02-12T09:58:55;12.20;51.60
38788;DHT22;24536;45.488;12.238;2023-02-12T10:01:22;12.30;51.70
38788;DHT22;24536;45.488;12.238;2023-02-12T10:03:50;12.50;51.30
38788;DHT22;24536;45.488;12.238;2023-02-12T10:06:28;12.70;51.20
38788;DHT22;24536;45.488;12.238;2023-02-12T10:09:37;12.90;51.10
38788;DHT22;24536;45.488;12.238;2023-02-12T10:12:32;13.10;51.40
38788;DHT22;24536;45.488;12.238;2023-02-12T10:17:41;13.60;48.50
38788;DHT22;24536;45.488;12.238;2023-02-12T10:25:49;13.90;47.70
38788;DHT22;24536;45.488;12.238;2023-02-12T10:28:19;14.00;48.60
38788;DHT22;24536;45.488;12.238;2023-02-12T10:31:01;14.30;47.60
38788;DHT22;24536;45.488;12.238;2023-02-12T10:33:40;14.40;46.70
38788;DHT22;24536;45.488;12.238;2023-02-12T10:39:13;14.50;46.00
38788;DHT22;24536;45.488;12.238;2023-02-12T10:41:51;14.70;45.40
38788;DHT22;24536;45.488;12.238;2023-02-12T10:44:18;14.70;45.20
38788;DHT22;24536;45.488;12.238;2023-02-12T10:46:43;14.90;43.80
38788;DHT22;24536;45.488;12.238;2023-02-12T10:49:14;14.90;44.90
38788;DHT22;24536;45.488;12.238;2023-02-12T10:52:07;15.20;44.40
38788;DHT22;24536;45.488;12.238;2023-02-12T10:54:43;15.10;43.30
38788;DHT22;24536;45.488;12.238;2023-02-12T10:57:19;15.20;44.50
38788;DHT22;24536;45.488;12.238;2023-02-12T10:59:48;15.40;42.90
38788;DHT22;24536;45.488;12.238;2023-02-12T11:02:32;15.60;42.50
38788;DHT22;24536;45.488;12.238;2023-02-12T11:04:59;15.80;42.50
38788;DHT22;24536;45.488;12.238;2023-02-12T11:07:48;15.90;40.10
38788;DHT22;24536;45.488;12.238;2023-02-12T11:10:32;16.00;41.30
38788;DHT22;24536;45.488;12.238;2023-02-12T11:13:01;16.10;41.30
38788;DHT22;24536;45.488;12.238;2023-02-12T11:15:45;16.20;41.30
38788;DHT22;24536;45.488;12.238;2023-02-12T11:18:21;16.40;40.40
38788;DHT22;24536;45.488;12.238;2023-02-12T11:20:55;16.50;40.70
38788;DHT22;24536;45.488;12.238;2023-02-12T11:23:28;16.60;41.30
38788;DHT22;24536;45.488;12.238;2023-02-12T11:25:58;16.80;41.10
38788;DHT22;24536;45.488;12.238;2023-02-12T11:28:25;16.90;40.90
38788;DHT22;24536;45.488;12.238;2023-02-12T11:31:00;17.10;41.00
38788;DHT22;24536;45.488;12.238;2023-02-12T11:33:31;17.40;39.70
38788;DHT22;24536;45.488;12.238;2023-02-12T11:36:00;17.50;37.70
38788;DHT22;24536;45.488;12.238;2023-02-12T11:38:33;17.60;38.00
38788;DHT22;24536;45.488;12.238;2023-02-12T11:41:08;17.90;38.60
38788;DHT22;24536;45.488;12.238;2023-02-12T11:43:44;18.00;36.50
38788;DHT22;24536;45.488;12.238;2023-02-12T11:46:10;18.20;36.00
38788;DHT22;24536;45.488;12.238;2023-02-12T11:48:45;18.50;36.10
38788;DHT22;24536;45.488;12.238;2023-02-12T11:51:21;18.50;36.40
38788;DHT22;24536;45.488;12.238;2023-02-12T11:53:51;18.90;36.10
38788;DHT22;24536;45.488;12.238;2023-02-12T11:56:19;19.50;35.40
38788;DHT22;24536;45.488;12.238;2023-02-12T11:58:49;21.70;33.20
38788;DHT22;24536;45.488;12.238;2023-02-12T12:01:17;21.90;33.10
38788;DHT22;24536;45.488;12.238;2023-02-12T12:03:51;24.00;30.90
38788;DHT22;24536;45.488;12.238;2023-02-12T12:09:02;25.00;29.80
38788;DHT22;24536;45.488;12.238;2023-02-12T12:11:35;25.80;28.80
38788;DHT22;24536;45.488;12.238;2023-02-12T12:20:22;27.30;27.20
38788;DHT22;24536;45.488;12.238;2023-02-12T12:25:39;28.00;26.80
38788;DHT22;24536;45.488;12.238;2023-02-12T12:33:48;28.20;25.50
38788;DHT22;24536;45.488;12.238;2023-02-12T12:56:28;26.20;26.70
38788;DHT22;24536;45.488;12.238;2023-02-12T12:59:29;26.10;26.60
38788;DHT22;24536;45.488;12.238;2023-02-12T13:02:23;26.00;26.50
38788;DHT22;24536;45.488;12.238;2023-02-12T13:08:17;25.60;26.00
38788;DHT22;24536;45.488;12.238;2023-02-12T13:10:56;25.60;26.30
38788;DHT22;24536;45.488;12.238;2023-02-12T13:13:40;25.90;26.00
38788;DHT22;24536;45.488;12.238;2023-02-12T13:26:57;25.80;26.30
38788;DHT22;24536;45.488;12.238;2023-02-12T13:32:22;24.10;27.00
38788;DHT22;24536;45.488;12.238;2023-02-12T13:34:49;22.50;28.10
38788;DHT22;24536;45.488;12.238;2023-02-12T13:37:36;22.40;28.40
38788;DHT22;24536;45.488;12.238;2023-02-12T13:40:05;21.40;29.20
38788;DHT22;24536;45.488;12.238;2023-02-12T13:53:29;19.20;32.50
38788;DHT22;24536;45.488;12.238;2023-02-12T13:56:37;18.50;33.30
38788;DHT22;24536;45.488;12.238;2023-02-12T14:09:40;17.50;36.70
38788;DHT22;24536;45.488;12.238;2023-02-12T14:14:44;17.30;37.10
38788;DHT22;24536;45.488;12.238;2023-02-12T14:20:24;17.10;38.10
38788;DHT22;24536;45.488;12.238;2023-02-12T14:46:41;16.30;41.90
38788;DHT22;24536;45.488;12.238;2023-02-12T14:48:53;16.20;41.70
38788;DHT22;24536;45.488;12.238;2023-02-12T14:51:44;16.10;42.20
38788;DHT22;24536;45.488;12.238;2023-02-12T14:54:20;16.10;42.20
38788;DHT22;24536;45.488;12.238;2023-02-12T14:56:50;15.90;42.60
38788;DHT22;24536;45.488;12.238;2023-02-12T14:59:23;15.90;42.80
38788;DHT22;24536;45.488;12.238;2023-02-12T15:01:51;15.90;43.40
38788;DHT22;24536;45.488;12.238;2023-02-12T15:04:26;15.80;43.30
38788;DHT22;24536;45.488;12.238;2023-02-12T15:06:57;15.80;44.00
38788;DHT22;24536;45.488;12.238;2023-02-12T15:09:36;15.70;44.00
38788;DHT22;24536;45.488;12.238;2023-02-12T15:13:00;15.70;44.50
38788;DHT22;24536;45.488;12.238;2023-02-12T15:15:21;15.70;44.80
38788;DHT22;24536;45.488;12.238;2023-02-12T15:21:16;15.40;45.40
38788;DHT22;24536;45.488;12.238;2023-02-12T15:24:03;15.40;45.80
38788;DHT22;24536;45.488;12.238;2023-02-12T15:26:51;15.30;46.20
38788;DHT22;24536;45.488;12.238;2023-02-12T15:29:44;15.30;46.60
38788;DHT22;24536;45.488;12.238;2023-02-12T15:32:25;15.30;46.70
38788;DHT22;24536;45.488;12.238;2023-02-12T15:34:53;15.20;47.10
38788;DHT22;24536;45.488;12.238;2023-02-12T15:37:29;15.20;47.50
38788;DHT22;24536;45.488;12.238;2023-02-12T15:39:59;15.20;47.80
38788;DHT22;24536;45.488;12.238;2023-02-12T15:42:32;15.10;47.70
38788;DHT22;24536;45.488;12.238;2023-02-12T15:47:38;15.00;48.10
38788;DHT22;24536;45.488;12.238;2023-02-12T15:50:10;15.00;48.30
38788;DHT22;24536;45.488;12.238;2023-02-12T15:52:39;14.90;48.90
38788;DHT22;24536;45.488;12.238;2023-02-12T15:55:15;14.90;49.30
38788;DHT22;24536;45.488;12.238;2023-02-12T15:57:43;14.80;49.50
38788;DHT22;24536;45.488;12.238;2023-02-12T16:00:38;14.70;49.50
38788;DHT22;24536;45.488;12.238;2023-02-12T16:03:15;14.70;50.00
38788;DHT22;24536;45.488;12.238;2023-02-12T16:05:43;14.60;50.20
38788;DHT22;24536;45.488;12.238;2023-02-12T16:08:14;14.60;50.80
38788;DHT22;24536;45.488;12.238;2023-02-12T16:10:45;14.50;51.20
38788;DHT22;24536;45.488;12.238;2023-02-12T16:13:33;14.50;51.40
38788;DHT22;24536;45.488;12.238;2023-02-12T16:18:38;14.40;51.30
38788;DHT22;24536;45.488;12.238;2023-02-12T16:21:11;14.30;52.10
38788;DHT22;24536;45.488;12.238;2023-02-12T16:23:41;14.20;52.40
38788;DHT22;24536;45.488;12.238;2023-02-12T16:26:07;14.20;52.80
38788;DHT22;24536;45.488;12.238;2023-02-12T16:28:32;14.10;53.10
38788;DHT22;24536;45.488;12.238;2023-02-12T16:31:12;14.10;53.40
38788;DHT22;24536;45.488;12.238;2023-02-12T16:43:49;13.80;54.80
38788;DHT22;24536;45.488;12.238;2023-02-12T16:46:17;13.70;54.00
38788;DHT22;24536;45.488;12.238;2023-02-12T16:48:47;13.70;54.50
38788;DHT22;24536;45.488;12.238;2023-02-12T16:51:30;13.60;54.60
38788;DHT22;24536;45.488;12.238;2023-02-12T16:54:02;13.50;55.20
38788;DHT22;24536;45.488;12.238;2023-02-12T16:56:31;13.40;55.00
38788;DHT22;24536;45.488;12.238;2023-02-12T16:58:59;13.40;56.00
38788;DHT22;24536;45.488;12.238;2023-02-12T17:01:35;13.30;56.20
38788;DHT22;24536;45.488;12.238;2023-02-12T17:04:12;13.30;56.30
38788;DHT22;24536;45.488;12.238;2023-02-12T17:06:38;13.20;56.30
38788;DHT22;24536;45.488;12.238;2023-02-12T17:09:04;13.20;56.90
38788;DHT22;24536;45.488;12.238;2023-02-12T17:11:30;13.10;57.10
38788;DHT22;24536;45.488;12.238;2023-02-12T17:13:55;13.00;56.80
38788;DHT22;24536;45.488;12.238;2023-02-12T17:16:21;13.00;57.00
38788;DHT22;24536;45.488;12.238;2023-02-12T17:18:47;12.90;57.50
38788;DHT22;24536;45.488;12.238;2023-02-12T17:21:40;12.90;57.80
38788;DHT22;24536;45.488;12.238;2023-02-12T17:24:17;12.80;58.00
38788;DHT22;24536;45.488;12.238;2023-02-12T17:26:44;12.80;58.20
38788;DHT22;24536;45.488;12.238;2023-02-12T17:29:09;12.70;58.30
38788;DHT22;24536;45.488;12.238;2023-02-12T17:31:35;12.70;58.40
38788;DHT22;24536;45.488;12.238;2023-02-12T17:34:02;12.60;58.20
38788;DHT22;24536;45.488;12.238;2023-02-12T17:36:28;12.60;58.40
38788;DHT22;24536;45.488;12.238;2023-02-12T17:38:54;12.60;59.00
38788;DHT22;24536;45.488;12.238;2023-02-12T17:41:19;12.50;58.90
38788;DHT22;24536;45.488;12.238;2023-02-12T17:43:45;12.50;58.90
38788;DHT22;24536;45.488;12.238;2023-02-12T17:46:13;12.50;59.30
38788;DHT22;24536;45.488;12.238;2023-02-12T17:48:41;12.50;59.50
38788;DHT22;24536;45.488;12.238;2023-02-12T17:51:08;12.50;59.90
38788;DHT22;24536;45.488;12.238;2023-02-12T17:53:34;12.50;60.20
38788;DHT22;24536;45.488;12.238;2023-02-12T17:56:00;12.40;60.20
38788;DHT22;24536;45.488;12.238;2023-02-12T17:58:26;12.30;60.40
38788;DHT22;24536;45.488;12.238;2023-02-12T18:00:51;12.20;60.50
38788;DHT22;24536;45.488;12.238;2023-02-12T18:03:17;12.20;60.60
38788;DHT22;24536;45.488;12.238;2023-02-12T18:05:43;12.20;60.80
38788;DHT22;24536;45.488;12.238;2023-02-12T18:08:09;12.10;60.50
38788;DHT22;24536;45.488;12.238;2023-02-12T18:10:42;12.10;60.90
38788;DHT22;24536;45.488;12.238;2023-02-12T18:15:35;12.00;61.00
38788;DHT22;24536;45.488;12.238;2023-02-12T18:18:01;11.90;61.50
38788;DHT22;24536;45.488;12.238;2023-02-12T18:20:27;11.90;61.70
38788;DHT22;24536;45.488;12.238;2023-02-12T18:22:53;11.90;62.00
38788;DHT22;24536;45.488;12.238;2023-02-12T18:25:19;11.80;61.90
38788;DHT22;24536;45.488;12.238;2023-02-12T18:27:44;11.80;62.10
38788;DHT22;24536;45.488;12.238;2023-02-12T18:30:10;11.80;62.30
38788;DHT22;24536;45.488;12.238;2023-02-12T18:32:36;11.70;62.50
38788;DHT22;24536;45.488;12.238;2023-02-12T18:35:06;11.70;62.30
38788;DHT22;24536;45.488;12.238;2023-02-12T18:37:32;11.70;62.80
38788;DHT22;24536;45.488;12.238;2023-02-12T18:39:58;11.70;62.80
38788;DHT22;24536;45.488;12.238;2023-02-12T18:42:25;11.60;62.90
38788;DHT22;24536;45.488;12.238;2023-02-12T18:44:53;11.60;63.10
38788;DHT22;24536;45.488;12.238;2023-02-12T18:47:19;11.60;63.10
38788;DHT22;24536;45.488;12.238;2023-02-12T18:49:44;11.50;63.00
38788;DHT22;24536;45.488;12.238;2023-02-12T18:52:10;11.40;62.70
38788;DHT22;24536;45.488;12.238;2023-02-12T18:54:36;11.50;63.40
38788;DHT22;24536;45.488;12.238;2023-02-12T18:57:02;11.40;63.60
38788;DHT22;24536;45.488;12.238;2023-02-12T18:59:27;11.40;63.70
38788;DHT22;24536;45.488;12.238;2023-02-12T19:04:21;11.30;63.50
38788;DHT22;24536;45.488;12.238;2023-02-12T19:06:52;11.30;64.00
38788;DHT22;24536;45.488;12.238;2023-02-12T19:09:19;11.20;64.00
38788;DHT22;24536;45.488;12.238;2023-02-12T19:11:48;11.20;64.20
38788;DHT22;24536;45.488;12.238;2023-02-12T19:14:15;11.20;64.40
38788;DHT22;24536;45.488;12.238;2023-02-12T19:16:42;11.20;64.50
38788;DHT22;24536;45.488;12.238;2023-02-12T19:21:36;11.10;64.30
38788;DHT22;24536;45.488;12.238;2023-02-12T19:24:03;11.10;64.90
38788;DHT22;24536;45.488;12.238;2023-02-12T19:26:32;11.10;64.50
38788;DHT22;24536;45.488;12.238;2023-02-12T19:28:58;11.00;64.90
38788;DHT22;24536;45.488;12.238;2023-02-12T19:31:44;11.00;65.00
38788;DHT22;24536;45.488;12.238;2023-02-12T19:34:28;11.00;65.10
38788;DHT22;24536;45.488;12.238;2023-02-12T19:36:53;10.90;64.80
38788;DHT22;24536;45.488;12.238;2023-02-12T19:39:21;10.90;64.90
38788;DHT22;24536;45.488;12.238;2023-02-12T19:41:48;10.90;64.90
38788;DHT22;24536;45.488;12.238;2023-02-12T19:44:16;10.90;65.00
38788;DHT22;24536;45.488;12.238;2023-02-12T19:46:43;10.90;64.90
38788;DHT22;24536;45.488;12.238;2023-02-12T19:49:15;10.80;65.00
38788;DHT22;24536;45.488;12.238;2023-02-12T19:51:41;10.80;65.20
38788;DHT22;24536;45.488;12.238;2023-02-12T19:54:08;10.70;65.30
38788;DHT22;24536;45.488;12.238;2023-02-12T19:56:38;10.70;65.30